Middleboro, Indiana
Current Conditions -  °F | °C
As of 7:35 PM on Monday 24 Nov 2014 (Local Time) from KVES Reporting Station
Overcast Overcast  
Wind Chill: 25°   Ceiling: 3200
Heat Index: 37°   Visibility: 10mi
Dew Point: 32°   Wind: 28mph
Humidity: 81%   Direction: 250°WSW
Pressure: 29.78"   Gusts: 35mph
Location:  39.8311°N, 84.8879°W
Report Text: KVES 250035Z AUTO 25024G30KT 10SM OVC032 03/00 A2978 RMK AO2
Loading
Personal Weather Stations






























Interactive Weather Map New forecast layout! Learn more

10-Day Weather Forecast

Advertisements
Track Severe Weather on mobile